Time;durP1;ratioP1;P1;durP2;ratioP2;P2;SDS_P1;SDS_P2;PMS_P1;PMS_P2;Temp;Humidity;BMP_temperature;BMP_pressure;BME280_temperature;BME280_humidity;BME280_pressure;Samples;Min_cycle;Max_cycle;Signal;HPM_P1;HPM_P2
2022/07/27 00:02:20;;;;;;;8.68;2.60;;;;;;;12.79;79.84;101852.16;5022968;28;20021;-74
2022/07/27 00:04:45;;;;;;;8.60;2.42;;;;;;;12.75;79.90;101847.94;5022214;28;20030;-74
2022/07/27 00:07:10;;;;;;;10.38;2.85;;;;;;;12.73;80.46;101848.03;5019883;28;20030;-74
2022/07/27 00:09:36;;;;;;;13.05;2.95;;;;;;;12.73;80.47;101839.94;5020108;28;20052;-74
2022/07/27 00:12:01;;;;;;;7.20;2.85;;;;;;;12.73;80.61;101845.34;5021467;28;20060;-74
2022/07/27 00:14:26;;;;;;;13.20;3.47;;;;;;;12.74;80.28;101849.78;5021021;28;20377;-74
2022/07/27 00:16:51;;;;;;;9.73;3.20;;;;;;;12.70;80.57;101833.91;5022329;28;20041;-74
2022/07/27 00:19:17;;;;;;;12.20;3.35;;;;;;;12.68;80.44;101841.22;5020259;28;20501;-74
2022/07/27 00:21:42;;;;;;;10.63;3.22;;;;;;;12.67;80.50;101844.91;5021671;28;20033;-74
2022/07/27 00:24:07;;;;;;;9.82;3.28;;;;;;;12.68;80.56;101841.22;5020291;28;20163;-74
2022/07/27 00:26:33;;;;;;;17.38;3.15;;;;;;;12.66;80.49;101843.16;5017118;28;20052;-74
2022/07/27 00:28:58;;;;;;;9.30;3.20;;;;;;;12.61;80.69;101842.56;5021489;28;20080;-74
2022/07/27 00:31:23;;;;;;;13.93;3.92;;;;;;;12.61;80.57;101845.28;5038688;28;20094;-74
2022/07/27 00:33:49;;;;;;;12.13;2.83;;;;;;;12.55;80.14;101842.03;5021236;28;20036;-73
2022/07/27 00:36:14;;;;;;;13.88;2.97;;;;;;;12.52;80.84;101842.25;5020134;28;20026;-73
2022/07/27 00:38:39;;;;;;;13.63;3.20;;;;;;;12.50;80.97;101835.22;5021276;28;20025;-73
2022/07/27 00:41:04;;;;;;;9.95;2.83;;;;;;;12.46;80.88;101836.38;5020470;28;20041;-73
2022/07/27 00:43:30;;;;;;;7.65;2.78;;;;;;;12.48;80.75;101835.31;5021713;28;20074;-73
2022/07/27 00:45:55;;;;;;;6.85;2.88;;;;;;;12.48;80.92;101834.47;5020446;28;20080;-73
2022/07/27 00:48:20;;;;;;;9.38;3.38;;;;;;;12.46;81.35;101833.66;5020479;28;20114;-73
2022/07/27 00:50:47;;;;;;;10.25;3.47;;;;;;;12.41;81.22;101837.53;5035860;28;20026;-73
2022/07/27 00:53:13;;;;;;;11.27;3.20;;;;;;;12.38;81.21;101840.44;5023415;28;20634;-73
2022/07/27 00:55:39;;;;;;;10.45;2.97;;;;;;;12.31;81.30;101843.63;5021707;28;20021;-73
2022/07/27 00:58:07;;;;;;;11.43;3.47;;;;;;;12.28;81.22;101843.84;5019728;28;20517;-73
2022/07/27 01:00:34;;;;;;;11.90;3.17;;;;;;;12.23;81.20;101834.22;5020829;28;20116;-73
2022/07/27 01:03:00;;;;;;;10.43;2.85;;;;;;;12.20;81.44;101838.94;5035581;28;20415;-73
2022/07/27 01:05:25;;;;;;;9.18;3.00;;;;;;;12.16;81.14;101832.88;5028639;28;20022;-73
2022/07/27 01:07:51;;;;;;;7.53;3.22;;;;;;;12.13;81.59;101835.75;5021327;28;20025;-73
2022/07/27 01:10:17;;;;;;;11.40;3.60;;;;;;;12.12;81.54;101838.56;5018784;28;20390;-74
2022/07/27 01:12:44;;;;;;;10.73;3.65;;;;;;;12.08;81.72;101837.91;5019325;28;20034;-74
2022/07/27 01:15:11;;;;;;;7.82;2.92;;;;;;;12.05;80.96;101841.66;5018006;28;20029;-74
2022/07/27 01:17:36;;;;;;;10.98;3.42;;;;;;;12.00;81.65;101834.81;5019467;28;20037;-74
2022/07/27 01:20:01;;;;;;;13.25;3.88;;;;;;;11.97;81.73;101845.81;5024124;28;20033;-74
2022/07/27 01:22:27;;;;;;;11.55;3.35;;;;;;;11.92;81.61;101837.97;5020157;28;20036;-74
2022/07/27 01:24:52;;;;;;;11.60;3.20;;;;;;;11.89;82.10;101833.66;5021960;28;20104;-74
2022/07/27 01:27:17;;;;;;;14.68;3.70;;;;;;;11.88;81.35;101833.75;5020087;28;20049;-74
2022/07/27 01:29:43;;;;;;;11.90;3.67;;;;;;;11.84;81.33;101846.53;5020356;28;20124;-74
2022/07/27 01:32:08;;;;;;;12.63;3.38;;;;;;;11.82;81.76;101845.75;5028439;28;20076;-74
2022/07/27 01:34:34;;;;;;;14.45;3.70;;;;;;;11.78;81.77;101841.53;5020449;28;20022;-74
2022/07/27 01:37:03;;;;;;;14.50;3.63;;;;;;;11.77;81.88;101847.00;5020885;28;20033;-74
2022/07/27 01:39:30;;;;;;;12.40;3.08;;;;;;;11.76;82.22;101845.28;5019709;28;20033;-74
2022/07/27 01:41:55;;;;;;;11.30;3.25;;;;;;;11.72;82.28;101847.31;5034031;28;20064;-74
2022/07/27 01:44:21;;;;;;;6.55;2.95;;;;;;;11.71;81.82;101840.19;5019760;28;20073;-74
2022/07/27 01:46:46;;;;;;;11.30;3.50;;;;;;;11.68;81.83;101835.88;5021603;28;20023;-74
2022/07/27 01:49:12;;;;;;;9.73;3.35;;;;;;;11.64;81.82;101830.75;5019787;28;20029;-74
2022/07/27 01:51:37;;;;;;;13.48;3.47;;;;;;;11.60;81.89;101837.31;5017238;28;21384;-74
2022/07/27 01:54:02;;;;;;;10.38;2.97;;;;;;;11.58;81.70;101831.13;5020707;28;20038;-74
2022/07/27 01:56:28;;;;;;;10.13;3.25;;;;;;;11.54;81.68;101828.63;5018995;28;20037;-74
2022/07/27 01:58:54;;;;;;;9.48;3.38;;;;;;;11.47;81.87;101831.81;5018145;28;20026;-74
2022/07/27 02:01:19;;;;;;;12.13;3.38;;;;;;;11.46;81.83;101839.00;5019439;28;20041;-74
2022/07/27 02:03:44;;;;;;;8.23;3.10;;;;;;;11.43;81.93;101835.63;5018772;28;21008;-74
2022/07/27 02:06:10;;;;;;;10.65;3.33;;;;;;;11.37;82.48;101826.97;5019304;28;20471;-74
2022/07/27 02:08:35;;;;;;;13.23;3.58;;;;;;;11.39;82.36;101834.09;5020486;28;20036;-74
2022/07/27 02:13:46;;;;;;;11.65;3.30;;;;;;;11.37;82.31;101831.50;5021125;28;20127;-74
2022/07/27 02:16:12;;;;;;;11.98;3.60;;;;;;;11.38;82.25;101830.53;5015055;28;20037;-74
2022/07/27 02:18:38;;;;;;;15.82;3.75;;;;;;;11.39;82.45;101829.59;5015978;28;20033;-74
2022/07/27 02:21:04;;;;;;;9.95;3.20;;;;;;;11.36;82.49;101830.63;5019288;28;20025;-74
2022/07/27 02:23:30;;;;;;;9.57;3.33;;;;;;;11.33;82.39;101821.88;5016693;28;20042;-74
2022/07/27 02:25:56;;;;;;;9.23;3.13;;;;;;;11.29;82.36;101820.31;5020239;28;21496;-74
2022/07/27 02:28:21;;;;;;;10.20;3.35;;;;;;;11.27;82.47;101819.56;5018772;28;20042;-74
2022/07/27 02:30:46;;;;;;;12.20;3.65;;;;;;;11.22;82.39;101816.28;5021428;28;20126;-74
2022/07/27 02:33:12;;;;;;;12.80;3.70;;;;;;;11.14;82.71;101814.94;5018383;28;20529;-74
2022/07/27 02:35:37;;;;;;;11.18;3.42;;;;;;;11.12;82.90;101827.59;5016860;28;20034;-74
2022/07/27 02:38:02;;;;;;;12.02;3.10;;;;;;;11.09;82.58;101827.78;5018938;28;20487;-74
2022/07/27 02:40:27;;;;;;;10.32;3.35;;;;;;;11.07;82.88;101818.06;5020956;28;20029;-73
2022/07/27 02:42:53;;;;;;;13.63;3.90;;;;;;;11.07;82.65;101813.56;5032459;28;20037;-73
2022/07/27 02:45:18;;;;;;;11.55;3.20;;;;;;;11.02;82.85;101816.53;5020366;28;20026;-73
2022/07/27 02:47:44;;;;;;;9.07;2.80;;;;;;;10.99;83.00;101822.06;5017939;28;20526;-73
2022/07/27 02:50:09;;;;;;;9.52;3.38;;;;;;;10.97;83.26;101815.06;5017511;28;20091;-73
2022/07/27 02:52:36;;;;;;;15.23;3.72;;;;;;;10.97;83.13;101817.75;5016789;28;20025;-73
2022/07/27 02:55:02;;;;;;;15.00;3.83;;;;;;;10.95;82.96;101814.28;5018575;28;20061;-73
2022/07/27 02:57:27;;;;;;;14.10;3.88;;;;;;;10.92;82.58;101820.72;5019689;28;20037;-73
2022/07/27 02:59:53;;;;;;;9.40;3.05;;;;;;;10.93;82.89;101817.06;5020939;28;20026;-73
2022/07/27 03:02:18;;;;;;;8.30;3.05;;;;;;;10.91;82.95;101810.03;5018774;28;20112;-73
2022/07/27 03:04:43;;;;;;;8.27;3.20;;;;;;;10.92;83.08;101814.47;5018726;28;20029;-73
2022/07/27 03:07:08;;;;;;;6.70;2.67;;;;;;;10.90;83.06;101816.38;5017752;28;20044;-73
2022/07/27 03:09:34;;;;;;;12.38;3.70;;;;;;;10.91;83.38;101823.47;5017709;28;20079;-74
2022/07/27 03:12:01;;;;;;;13.07;3.72;;;;;;;10.88;83.19;101819.16;5019102;28;20037;-74
2022/07/27 03:14:26;;;;;;;9.88;3.20;;;;;;;10.87;83.55;101830.03;5017211;28;20034;-74
2022/07/27 03:16:51;;;;;;;11.48;3.58;;;;;;;10.88;83.21;101824.56;5034333;28;20025;-74
2022/07/27 03:19:17;;;;;;;10.65;3.30;;;;;;;10.87;83.33;101828.19;5017664;28;20386;-74
2022/07/27 03:21:42;;;;;;;10.18;3.70;;;;;;;10.84;83.77;101823.00;5018416;28;20037;-74
2022/07/27 03:24:07;;;;;;;14.43;4.25;;;;;;;10.86;83.59;101825.59;5018575;28;20465;-74
2022/07/27 03:26:33;;;;;;;11.75;3.50;;;;;;;10.84;83.43;101818.47;5017940;28;20072;-74
2022/07/27 03:28:59;;;;;;;13.10;4.10;;;;;;;10.84;83.40;101826.53;5016203;28;20057;-74
2022/07/27 03:31:24;;;;;;;9.25;3.33;;;;;;;10.83;83.24;101821.25;5018773;28;20128;-74
2022/07/27 03:33:49;;;;;;;13.32;3.88;;;;;;;10.83;83.39;101819.44;5016827;28;20018;-74
2022/07/27 03:36:14;;;;;;;12.98;3.65;;;;;;;10.81;83.03;101820.50;5023746;28;20037;-74
2022/07/27 03:38:40;;;;;;;11.57;3.30;;;;;;;10.79;83.67;101814.31;5020986;28;21494;-74
2022/07/27 03:41:05;;;;;;;13.63;3.60;;;;;;;10.78;83.68;101826.06;5022740;28;20472;-74
2022/07/27 03:43:31;;;;;;;10.77;3.50;;;;;;;10.76;83.63;101822.56;5023613;28;20033;-74
2022/07/27 03:45:56;;;;;;;11.15;3.63;;;;;;;10.78;83.77;101823.34;5020950;28;20018;-73
2022/07/27 03:48:21;;;;;;;13.88;3.78;;;;;;;10.75;83.88;101824.41;5022056;28;20033;-73
2022/07/27 03:50:47;;;;;;;12.05;3.35;;;;;;;10.75;83.53;101826.22;5021350;28;20095;-73
2022/07/27 03:53:12;;;;;;;11.13;3.22;;;;;;;10.77;84.21;101829.69;5018025;28;20043;-73
2022/07/27 03:55:37;;;;;;;11.98;3.63;;;;;;;10.77;84.50;101825.16;5022099;28;20088;-73
2022/07/27 03:58:02;;;;;;;14.70;3.70;;;;;;;10.77;85.20;101827.00;5021952;28;20032;-73
2022/07/27 04:00:28;;;;;;;13.65;3.88;;;;;;;10.79;84.53;101831.34;5021913;28;20256;-73
2022/07/27 04:02:53;;;;;;;18.48;3.65;;;;;;;10.82;85.53;101827.56;5021315;28;20026;-73
2022/07/27 04:05:19;;;;;;;13.45;3.78;;;;;;;10.85;85.87;101824.72;5021725;28;20049;-73
2022/07/27 04:07:45;;;;;;;13.50;3.83;;;;;;;10.91;85.94;101831.56;5021708;28;20044;-73
2022/07/27 04:10:10;;;;;;;11.35;3.58;;;;;;;10.95;86.50;101823.22;5018980;28;20057;-74
2022/07/27 04:12:36;;;;;;;9.85;3.50;;;;;;;10.99;86.40;101831.97;5022010;28;20486;-74
2022/07/27 04:15:03;;;;;;;9.88;3.60;;;;;;;11.00;86.47;101833.72;5019269;28;20033;-74
2022/07/27 04:17:28;;;;;;;13.65;3.72;;;;;;;11.04;86.38;101829.88;5022294;28;20333;-74
2022/07/27 04:19:54;;;;;;;10.25;3.88;;;;;;;11.06;86.59;101821.72;5020919;28;20033;-74
2022/07/27 04:22:19;;;;;;;14.65;4.22;;;;;;;11.07;86.30;101821.63;5019253;28;20040;-74
2022/07/27 04:24:44;;;;;;;12.80;4.03;;;;;;;11.09;86.44;101829.63;5021462;28;20092;-73
2022/07/27 04:27:09;;;;;;;11.52;3.88;;;;;;;11.09;86.54;101827.78;5022414;28;20033;-73
2022/07/27 04:29:35;;;;;;;10.98;3.67;;;;;;;11.11;86.76;101828.56;5019539;28;20045;-73
2022/07/27 04:32:01;;;;;;;13.80;3.97;;;;;;;11.16;86.72;101828.28;5023594;28;20064;-73
2022/07/27 04:34:26;;;;;;;13.82;4.18;;;;;;;11.19;86.67;101834.34;5020794;28;20112;-73
2022/07/27 04:36:52;;;;;;;10.85;3.88;;;;;;;11.25;86.41;101843.00;5022185;28;20030;-73
2022/07/27 04:39:17;;;;;;;14.65;4.20;;;;;;;11.25;86.62;101835.78;5019547;28;20033;-73
2022/07/27 04:41:42;;;;;;;8.45;3.17;;;;;;;11.29;86.32;101840.03;5017823;28;20041;-73
2022/07/27 04:44:07;;;;;;;14.75;4.03;;;;;;;11.33;86.36;101840.69;5022221;28;20112;-73
2022/07/27 04:46:33;;;;;;;10.70;3.33;;;;;;;11.35;86.09;101844.19;5016148;28;20030;-73
2022/07/27 04:48:58;;;;;;;10.05;3.65;;;;;;;11.38;86.63;101846.69;5021391;28;20175;-73
2022/07/27 04:51:23;;;;;;;16.35;3.95;;;;;;;11.40;86.38;101841.22;5036218;28;20493;-73
2022/07/27 04:53:49;;;;;;;18.05;4.65;;;;;;;11.40;87.02;101841.22;5019059;28;20028;-73
2022/07/27 04:56:14;;;;;;;15.13;4.55;;;;;;;11.45;87.10;101847.16;5019967;28;20052;-73
2022/07/27 04:58:39;;;;;;;13.88;4.15;;;;;;;11.50;87.33;101845.94;5020553;28;20025;-73
2022/07/27 05:01:04;;;;;;;13.85;3.63;;;;;;;11.53;87.18;101851.13;5019990;28;20033;-73
2022/07/27 05:03:30;;;;;;;12.40;4.05;;;;;;;11.60;86.94;101857.00;5019789;28;20132;-73
2022/07/27 05:05:55;;;;;;;19.27;4.38;;;;;;;11.64;86.93;101850.47;5018338;28;20442;-73
2022/07/27 05:08:20;;;;;;;11.50;3.63;;;;;;;11.67;87.07;101860.16;5020265;28;20111;-74
2022/07/27 05:10:46;;;;;;;18.77;4.32;;;;;;;11.71;86.75;101857.22;5020015;28;20057;-74
2022/07/27 05:13:11;;;;;;;17.92;6.60;;;;;;;11.78;86.78;101860.38;5020796;28;20029;-74
2022/07/27 05:15:37;;;;;;;21.85;9.15;;;;;;;11.82;86.79;101853.00;5021108;28;20091;-74
2022/07/27 05:18:03;;;;;;;21.83;8.73;;;;;;;11.86;86.44;101852.69;5021358;28;20048;-74
2022/07/27 05:20:28;;;;;;;23.35;8.35;;;;;;;11.91;86.46;101863.19;5020462;28;20029;-74
2022/07/27 05:22:54;;;;;;;24.02;8.70;;;;;;;11.94;87.11;101870.25;5020867;28;20061;-74
2022/07/27 05:25:20;;;;;;;22.38;7.40;;;;;;;11.95;86.89;101870.16;5035180;28;20112;-74
2022/07/27 05:27:46;;;;;;;20.30;6.32;;;;;;;12.02;87.03;101881.38;5020581;28;20137;-74
2022/07/27 05:30:12;;;;;;;19.58;5.32;;;;;;;12.07;87.04;101881.97;5022060;28;20129;-74
2022/07/27 05:32:37;;;;;;;14.60;4.80;;;;;;;12.15;86.96;101878.78;5021959;28;20060;-74
2022/07/27 05:35:03;;;;;;;15.02;4.40;;;;;;;12.20;87.13;101879.38;5019925;28;20445;-74
2022/07/27 05:37:28;;;;;;;13.63;4.00;;;;;;;12.23;87.17;101885.41;5021959;28;20041;-74
2022/07/27 05:39:54;;;;;;;11.90;3.63;;;;;;;12.29;86.91;101875.22;5019710;28;20104;-74
2022/07/27 05:42:19;;;;;;;12.23;3.65;;;;;;;12.32;86.62;101867.78;5020283;28;20033;-74
2022/07/27 05:44:44;;;;;;;12.38;3.85;;;;;;;12.41;86.76;101863.63;5022091;28;20025;-74
2022/07/27 05:47:09;;;;;;;18.92;4.72;;;;;;;12.47;87.16;101865.06;5017787;28;20556;-74
2022/07/27 05:49:35;;;;;;;10.75;3.65;;;;;;;12.53;87.36;101870.94;5018619;28;20036;-74
2022/07/27 05:52:00;;;;;;;19.20;3.75;;;;;;;12.63;86.89;101873.88;5029342;28;20034;-74
2022/07/27 05:54:25;;;;;;;14.70;4.53;;;;;;;12.71;86.49;101878.78;5024387;28;20040;-74
2022/07/27 05:56:51;;;;;;;12.00;4.03;;;;;;;12.78;87.07;101872.00;5020007;28;20029;-74
2022/07/27 05:59:17;;;;;;;11.82;4.07;;;;;;;12.85;86.19;101876.03;5020021;28;20655;-74
2022/07/27 06:01:42;;;;;;;15.27;4.35;;;;;;;12.93;85.62;101883.63;5020433;28;20079;-74
2022/07/27 06:04:07;;;;;;;15.50;4.05;;;;;;;13.01;86.43;101885.81;5021421;28;20474;-74
2022/07/27 06:09:16;;;;;;;18.15;4.25;;;;;;;13.16;86.21;101884.75;5018546;28;20064;-74
2022/07/27 06:11:42;;;;;;;14.13;4.00;;;;;;;13.24;84.88;101884.25;5020846;28;20489;-74
2022/07/27 06:14:08;;;;;;;13.27;4.75;;;;;;;13.32;84.72;101886.41;5018845;28;20036;-74
2022/07/27 06:16:33;;;;;;;16.05;4.60;;;;;;;13.39;84.60;101877.81;5018061;28;20025;-74
2022/07/27 06:18:59;;;;;;;16.23;4.03;;;;;;;13.49;85.13;101888.00;5018109;28;20029;-74
2022/07/27 06:21:26;;;;;;;14.88;4.13;;;;;;;13.62;85.91;101894.28;5022494;28;20029;-73
2022/07/27 06:23:53;;;;;;;10.15;3.70;;;;;;;13.73;85.32;101882.72;5023242;28;20394;-73
2022/07/27 06:26:18;;;;;;;14.25;3.80;;;;;;;13.79;84.26;101883.16;5016870;28;20485;-73
2022/07/27 06:28:43;;;;;;;12.32;3.50;;;;;;;13.91;85.00;101888.66;5016710;28;20071;-73
2022/07/27 06:31:08;;;;;;;10.93;3.65;;;;;;;13.96;82.90;101886.50;5023599;28;20045;-73
2022/07/27 06:33:34;;;;;;;11.13;3.20;;;;;;;14.05;84.32;101893.94;5021351;28;20036;-73
2022/07/27 06:36:00;;;;;;;9.18;2.97;;;;;;;14.08;84.46;101885.59;5021875;28;20033;-73
2022/07/27 06:38:26;;;;;;;10.95;3.28;;;;;;;14.14;83.62;101884.31;5020412;28;20485;-73
2022/07/27 06:40:52;;;;;;;9.68;3.10;;;;;;;14.20;82.81;101883.84;5021220;28;20033;-73
2022/07/27 06:43:19;;;;;;;10.45;3.35;;;;;;;14.25;80.88;101883.56;5018535;28;20662;-73
2022/07/27 06:45:44;;;;;;;7.55;2.75;;;;;;;14.30;82.97;101887.63;5023358;28;20767;-73
2022/07/27 06:48:10;;;;;;;12.73;3.13;;;;;;;14.36;82.02;101886.31;5017830;28;20057;-73
2022/07/27 06:50:36;;;;;;;12.13;2.70;;;;;;;14.42;79.60;101893.13;5021095;28;20038;-73
2022/07/27 06:53:01;;;;;;;8.23;2.88;;;;;;;14.51;80.30;101889.78;5019890;28;20034;-73
2022/07/27 06:55:27;;;;;;;6.97;2.47;;;;;;;14.58;80.75;101900.97;5017430;28;20065;-73
2022/07/27 06:57:52;;;;;;;8.63;2.40;;;;;;;14.64;77.75;101893.31;5015065;28;20025;-73
2022/07/27 07:00:17;;;;;;;9.05;2.55;;;;;;;14.75;78.56;101894.38;5016362;28;20108;-73
2022/07/27 07:02:53;;;;;;;9.82;3.13;;;;;;;14.84;78.16;101886.41;5019795;28;20045;-74
2022/07/27 07:05:19;;;;;;;14.32;3.00;;;;;;;14.96;79.06;101895.44;5018433;28;20033;-73
2022/07/27 07:07:44;;;;;;;10.13;2.50;;;;;;;15.05;76.05;101898.44;5015696;28;20029;-74
2022/07/27 07:10:09;;;;;;;8.40;2.53;;;;;;;15.20;77.38;101898.16;5021871;28;20029;-73
2022/07/27 07:12:34;;;;;;;6.70;2.60;;;;;;;15.32;77.24;101907.19;5022248;28;20026;-73
2022/07/27 07:15:00;;;;;;;7.90;2.30;;;;;;;15.47;75.40;101909.69;5021147;28;20480;-73
2022/07/27 07:17:25;;;;;;;5.03;2.17;;;;;;;15.61;73.54;101906.78;5026377;28;20034;-73
2022/07/27 07:19:50;;;;;;;9.10;2.20;;;;;;;15.76;75.17;101899.28;5022759;28;20021;-73
2022/07/27 07:22:16;;;;;;;8.93;2.30;;;;;;;15.85;73.22;101903.16;5023484;28;20037;-73
2022/07/27 07:24:41;;;;;;;7.38;2.50;;;;;;;15.94;71.64;101902.41;5024678;28;20476;-73
2022/07/27 07:27:06;;;;;;;3.83;1.80;;;;;;;16.04;73.15;101911.53;5025049;28;20028;-73
2022/07/27 07:29:31;;;;;;;9.70;2.35;;;;;;;16.15;71.40;101910.72;5022066;28;20053;-73
2022/07/27 07:31:57;;;;;;;15.02;2.70;;;;;;;16.24;69.95;101909.97;5021334;28;20039;-73
2022/07/27 07:34:22;;;;;;;8.18;2.42;;;;;;;16.30;69.25;101914.03;5033896;28;20029;-73
2022/07/27 07:36:47;;;;;;;8.10;2.08;;;;;;;16.35;68.24;101906.38;5023596;28;20496;-73
2022/07/27 07:39:12;;;;;;;6.78;1.73;;;;;;;16.34;67.07;101904.66;5023513;28;20029;-73
2022/07/27 07:41:38;;;;;;;7.18;2.17;;;;;;;16.32;65.98;101920.19;5022202;28;20120;-73
2022/07/27 07:44:03;;;;;;;8.30;1.92;;;;;;;16.31;68.02;101914.88;5024389;28;20500;-73
2022/07/27 07:46:29;;;;;;;11.20;2.60;;;;;;;16.30;68.98;101915.88;5023642;28;20033;-73
2022/07/27 07:48:55;;;;;;;8.05;2.00;;;;;;;16.28;69.02;101915.97;5018080;28;20075;-73
2022/07/27 07:51:20;;;;;;;4.50;1.98;;;;;;;16.28;68.25;101921.41;5019351;28;20045;-73
2022/07/27 07:53:46;;;;;;;8.77;2.15;;;;;;;16.29;69.92;101922.28;5023784;28;20022;-73
2022/07/27 07:56:11;;;;;;;6.68;1.95;;;;;;;16.27;68.42;101918.81;5027357;28;20125;-73
2022/07/27 07:58:36;;;;;;;6.90;1.95;;;;;;;16.28;68.76;101920.56;5023886;28;20029;-73
2022/07/27 08:01:01;;;;;;;7.28;2.20;;;;;;;16.29;69.05;101925.84;5027714;28;20487;-73
2022/07/27 08:03:27;;;;;;;8.95;2.05;;;;;;;16.25;67.62;101924.38;5035636;28;20021;-74
2022/07/27 08:05:52;;;;;;;4.72;2.10;;;;;;;16.27;69.39;101929.66;5018198;28;20065;-74
2022/07/27 08:08:17;;;;;;;10.02;2.35;;;;;;;16.30;70.12;101929.44;5024173;28;20116;-74
2022/07/27 08:10:43;;;;;;;6.72;2.22;;;;;;;16.29;69.61;101934.00;5018009;28;20033;-73
2022/07/27 08:13:08;;;;;;;8.30;2.03;;;;;;;16.31;70.40;101937.47;5034334;28;20493;-73
2022/07/27 08:15:33;;;;;;;8.00;2.63;;;;;;;16.29;69.65;101936.72;5033195;28;20111;-73
2022/07/27 08:17:59;;;;;;;6.55;2.22;;;;;;;16.29;70.81;101941.28;5034146;28;20025;-73
2022/07/27 08:20:27;;;;;;;10.23;2.53;;;;;;;16.28;70.23;101943.09;5027247;28;20021;-73
2022/07/27 08:22:52;;;;;;;5.18;1.92;;;;;;;16.29;69.39;101942.13;5028900;28;20405;-73
2022/07/27 08:25:18;;;;;;;8.55;2.15;;;;;;;16.30;70.34;101935.72;5034225;28;20022;-73
2022/07/27 08:27:43;;;;;;;9.00;2.28;;;;;;;16.33;69.94;101938.19;5032722;28;20049;-73
2022/07/27 08:30:09;;;;;;;8.40;2.33;;;;;;;16.34;69.64;101931.78;5033969;28;20072;-73
2022/07/27 08:32:53;;;;;;;12.60;2.50;;;;;;;16.39;70.62;101936.84;5020817;28;20500;-73
2022/07/27 08:35:19;;;;;;;4.03;2.13;;;;;;;16.43;70.49;101928.31;5014108;28;20118;-73
2022/07/27 08:37:44;;;;;;;9.93;2.28;;;;;;;16.50;69.40;101928.69;5033946;28;20037;-73
2022/07/27 08:40:10;;;;;;;6.43;1.90;;;;;;;16.61;66.65;101916.94;5034325;28;20033;-73
2022/07/27 08:42:35;;;;;;;7.43;2.17;;;;;;;16.73;66.08;101926.78;5032470;28;20025;-73
2022/07/27 08:45:02;;;;;;;7.47;2.25;;;;;;;16.84;65.11;101914.19;5032557;28;20048;-73
2022/07/27 08:47:28;;;;;;;4.63;2.15;;;;;;;16.91;64.31;101918.13;5018504;28;20030;-73
2022/07/27 08:49:53;;;;;;;9.70;2.25;;;;;;;16.95;64.28;101919.63;5012528;28;20041;-73
2022/07/27 08:52:19;;;;;;;9.50;1.92;;;;;;;16.97;61.15;101925.81;5029183;28;20385;-73
2022/07/27 08:54:45;;;;;;;11.85;2.85;;;;;;;16.98;60.77;101921.22;5016489;28;20431;-73
2022/07/27 08:57:10;;;;;;;5.93;2.30;;;;;;;17.01;62.24;101918.25;5032072;28;20063;-73
2022/07/27 08:59:36;;;;;;;7.53;2.13;;;;;;;17.04;62.20;101929.72;5033651;28;20108;-73
2022/07/27 09:02:03;;;;;;;8.00;2.28;;;;;;;17.06;60.88;101930.44;5032494;28;20104;-73
2022/07/27 09:04:30;;;;;;;7.88;2.47;;;;;;;17.09;62.61;101934.78;5032149;28;20040;-73
2022/07/27 09:06:55;;;;;;;14.02;2.63;;;;;;;17.14;64.35;101924.38;5032425;28;20021;-73
2022/07/27 09:09:21;;;;;;;12.77;2.25;;;;;;;17.18;64.87;101931.28;5033217;28;20539;-74
2022/07/27 09:12:07;;;;;;;6.28;1.92;;;;;;;17.21;65.71;101933.72;5033367;28;20120;-74
2022/07/27 09:14:35;;;;;;;8.43;2.40;;;;;;;17.21;64.02;101931.00;5032125;28;20400;-74
2022/07/27 09:17:26;;;;;;;6.93;2.42;;;;;;;17.21;64.85;101931.00;5033055;28;20117;-74
2022/07/27 09:19:53;;;;;;;12.10;2.55;;;;;;;17.17;62.48;101931.41;5028710;28;20030;-74
2022/07/27 09:22:41;;;;;;;8.27;2.20;;;;;;;17.19;63.90;101933.00;5013490;28;20038;-74
2022/07/27 09:25:08;;;;;;;7.95;2.38;;;;;;;17.14;61.42;101940.66;5023794;28;20034;-74
2022/07/27 09:27:33;;;;;;;10.48;2.53;;;;;;;17.12;61.82;101940.78;5032651;28;20095;-74
2022/07/27 09:30:09;;;;;;;6.38;2.22;;;;;;;17.11;63.93;101944.50;5033028;28;20033;-74
2022/07/27 09:32:37;;;;;;;8.02;2.47;;;;;;;17.07;63.43;101945.78;5030830;28;20075;-74
2022/07/27 09:35:17;;;;;;;6.35;2.10;;;;;;;17.07;63.56;101944.88;5026637;28;20040;-74
2022/07/27 09:37:42;;;;;;;5.03;2.00;;;;;;;17.05;64.10;101942.28;5032781;28;20021;-74
2022/07/27 09:40:22;;;;;;;13.00;2.28;;;;;;;17.05;63.83;101934.16;5026039;28;20061;-74
2022/07/27 09:43:06;;;;;;;6.93;2.22;;;;;;;17.05;63.31;101939.59;5029584;28;20056;-74
2022/07/27 09:45:34;;;;;;;9.65;2.65;;;;;;;17.04;62.03;101940.59;5017996;28;20021;-74
2022/07/27 09:48:11;;;;;;;9.05;2.60;;;;;;;17.00;62.70;101944.56;5021787;28;20087;-74
2022/07/27 09:50:40;;;;;;;9.38;2.22;;;;;;;16.97;62.99;101938.50;5018621;28;20040;-74
2022/07/27 09:53:21;;;;;;;6.40;2.25;;;;;;;16.98;64.11;101934.81;5020652;28;20033;-74
2022/07/27 09:56:00;;;;;;;6.05;2.33;;;;;;;16.97;63.26;101939.38;5016850;28;20049;-74
2022/07/27 09:58:46;;;;;;;6.23;2.27;;;;;;;17.01;64.31;101940.81;5017007;28;20029;-74
2022/07/27 10:01:16;;;;;;;12.30;2.40;;;;;;;16.98;62.84;101946.50;5024900;28;20036;-74
2022/07/27 10:03:43;;;;;;;5.53;2.63;;;;;;;17.03;63.59;101938.84;5024766;28;20026;-73
2022/07/27 10:06:09;;;;;;;5.68;2.25;;;;;;;17.05;62.64;101942.28;5021445;28;20087;-73
2022/07/27 10:08:40;;;;;;;7.47;2.10;;;;;;;17.10;62.95;101945.50;5014505;28;20506;-73
2022/07/27 10:11:06;;;;;;;10.30;2.45;;;;;;;17.15;63.52;101934.25;5025485;28;20029;-73
2022/07/27 10:13:32;;;;;;;7.05;2.25;;;;;;;17.20;62.96;101939.28;5015992;28;20025;-74
2022/07/27 10:15:58;;;;;;;8.20;2.38;;;;;;;17.23;63.00;101933.59;5016578;28;20040;-73
2022/07/27 10:18:49;;;;;;;6.35;2.40;;;;;;;17.31;63.46;101941.97;5028358;28;20025;-73
2022/07/27 10:21:15;;;;;;;12.25;3.25;;;;;;;17.30;61.89;101929.38;5025828;28;20040;-73
2022/07/27 10:23:53;;;;;;;6.95;2.42;;;;;;;17.33;62.41;101934.53;5027548;28;20030;-73
2022/07/27 10:26:24;;;;;;;8.85;2.17;;;;;;;17.36;62.06;101925.28;5029157;28;20041;-73
2022/07/27 10:28:58;;;;;;;6.97;1.90;;;;;;;17.44;63.03;101929.06;5027339;28;20053;-73
2022/07/27 10:31:29;;;;;;;8.02;2.47;;;;;;;17.56;63.05;101929.00;5030286;28;20033;-73
2022/07/27 10:34:00;;;;;;;9.57;2.30;;;;;;;17.68;60.77;101921.66;5028781;28;20072;-73
2022/07/27 10:36:28;;;;;;;5.75;2.10;;;;;;;17.82;60.75;101913.16;5029544;28;20030;-73
2022/07/27 10:38:56;;;;;;;6.22;2.35;;;;;;;17.93;59.67;101920.41;5028040;28;20091;-73
2022/07/27 10:41:27;;;;;;;6.85;2.20;;;;;;;17.93;56.75;101921.25;5029671;28;20033;-73
2022/07/27 10:44:15;;;;;;;7.07;2.03;;;;;;;17.94;57.00;101919.41;5030870;28;20033;-73
2022/07/27 10:46:55;;;;;;;4.15;2.00;;;;;;;17.93;56.49;101914.97;5031218;28;20036;-73
2022/07/27 10:49:24;;;;;;;9.55;2.10;;;;;;;17.93;58.65;101914.97;5032479;28;20033;-73
2022/07/27 10:51:52;;;;;;;5.10;1.73;;;;;;;17.96;61.77;101911.97;5031531;28;20029;-73
2022/07/27 10:54:36;;;;;;;3.92;1.83;;;;;;;17.99;62.07;101911.69;5033510;28;20292;-73
2022/07/27 10:57:04;;;;;;;8.45;2.05;;;;;;;18.02;60.58;101907.84;5031938;28;20029;-73
2022/07/27 10:59:38;;;;;;;9.13;2.15;;;;;;;18.05;62.63;101908.41;5033970;28;20040;-73
2022/07/27 11:02:12;;;;;;;6.45;2.08;;;;;;;18.06;60.93;101899.28;5052581;28;20048;-73
2022/07/27 11:04:46;;;;;;;6.95;2.17;;;;;;;18.08;59.32;101908.19;5051863;28;20047;-73
2022/07/27 11:07:15;;;;;;;6.43;2.15;;;;;;;18.14;58.98;101899.47;5034757;28;20520;-73
2022/07/27 11:09:41;;;;;;;5.28;2.10;;;;;;;18.18;58.21;101908.19;5032206;28;20025;-74
2022/07/27 11:12:09;;;;;;;14.27;4.30;;;;;;;18.21;56.95;101907.94;5033131;28;20025;-74
2022/07/27 11:14:50;;;;;;;5.63;2.40;;;;;;;18.22;58.40;101911.53;5033686;28;20026;-74
2022/07/27 11:17:25;;;;;;;9.68;2.35;;;;;;;18.20;57.63;101905.34;5029632;28;20026;-74
2022/07/27 11:19:53;;;;;;;3.75;1.77;;;;;;;18.25;59.01;101913.97;5031894;28;20508;-74
2022/07/27 11:22:35;;;;;;;8.90;2.35;;;;;;;18.28;59.26;101908.25;5032414;28;20469;-74
2022/07/27 11:25:01;;;;;;;6.63;2.35;;;;;;;18.25;56.29;101903.09;5032175;28;20021;-74
2022/07/27 11:27:27;;;;;;;10.75;2.47;;;;;;;18.28;57.29;101902.81;5032276;28;20116;-74